sensor_id;sensor_type;location;lat;lon;timestamp;P1;durP1;ratioP1;P2;durP2;ratioP2
2031;SDS011;27625;50.422;7.944;2023-01-28T00:02:35;5.97;;;4.17;;
2031;SDS011;27625;50.422;7.944;2023-01-28T00:05:02;9.80;;;5.40;;
2031;SDS011;27625;50.422;7.944;2023-01-28T00:07:29;4.30;;;3.90;;
2031;SDS011;27625;50.422;7.944;2023-01-28T00:10:00;5.07;;;4.30;;
2031;SDS011;27625;50.422;7.944;2023-01-28T00:12:27;5.70;;;4.53;;
2031;SDS011;27625;50.422;7.944;2023-01-28T00:14:54;4.63;;;4.23;;
2031;SDS011;27625;50.422;7.944;2023-01-28T00:17:21;5.60;;;4.87;;
2031;SDS011;27625;50.422;7.944;2023-01-28T00:19:49;5.00;;;4.10;;
2031;SDS011;27625;50.422;7.944;2023-01-28T00:22:16;5.63;;;4.80;;
2031;SDS011;27625;50.422;7.944;2023-01-28T00:24:42;5.70;;;4.63;;
2031;SDS011;27625;50.422;7.944;2023-01-28T00:27:09;6.33;;;4.63;;
2031;SDS011;27625;50.422;7.944;2023-01-28T00:29:38;6.80;;;4.30;;
2031;SDS011;27625;50.422;7.944;2023-01-28T00:32:19;5.10;;;4.53;;
2031;SDS011;27625;50.422;7.944;2023-01-28T00:34:48;5.00;;;4.17;;
2031;SDS011;27625;50.422;7.944;2023-01-28T00:37:17;4.80;;;4.30;;
2031;SDS011;27625;50.422;7.944;2023-01-28T00:39:44;6.53;;;4.77;;
2031;SDS011;27625;50.422;7.944;2023-01-28T00:42:10;6.60;;;4.87;;
2031;SDS011;27625;50.422;7.944;2023-01-28T00:44:37;5.90;;;4.20;;
2031;SDS011;27625;50.422;7.944;2023-01-28T00:47:07;5.60;;;4.90;;
2031;SDS011;27625;50.422;7.944;2023-01-28T00:49:34;5.83;;;4.60;;
2031;SDS011;27625;50.422;7.944;2023-01-28T00:52:05;6.43;;;4.90;;
2031;SDS011;27625;50.422;7.944;2023-01-28T00:54:33;6.60;;;4.77;;
2031;SDS011;27625;50.422;7.944;2023-01-28T00:57:01;5.20;;;4.50;;
2031;SDS011;27625;50.422;7.944;2023-01-28T00:59:28;6.63;;;4.40;;
2031;SDS011;27625;50.422;7.944;2023-01-28T01:01:54;9.00;;;4.80;;
2031;SDS011;27625;50.422;7.944;2023-01-28T01:04:37;6.60;;;4.90;;
2031;SDS011;27625;50.422;7.944;2023-01-28T01:07:05;7.30;;;4.57;;
2031;SDS011;27625;50.422;7.944;2023-01-28T01:09:32;6.00;;;4.63;;
2031;SDS011;27625;50.422;7.944;2023-01-28T01:11:59;7.10;;;5.00;;
2031;SDS011;27625;50.422;7.944;2023-01-28T01:14:26;5.60;;;4.90;;
2031;SDS011;27625;50.422;7.944;2023-01-28T01:16:55;5.90;;;5.30;;
2031;SDS011;27625;50.422;7.944;2023-01-28T01:19:22;5.77;;;4.87;;
2031;SDS011;27625;50.422;7.944;2023-01-28T01:21:56;6.20;;;4.77;;
2031;SDS011;27625;50.422;7.944;2023-01-28T01:24:26;6.63;;;5.93;;
2031;SDS011;27625;50.422;7.944;2023-01-28T01:26:54;7.10;;;5.40;;
2031;SDS011;27625;50.422;7.944;2023-01-28T01:29:21;6.30;;;5.20;;
2031;SDS011;27625;50.422;7.944;2023-01-28T01:31:49;6.57;;;5.20;;
2031;SDS011;27625;50.422;7.944;2023-01-28T01:34:17;5.27;;;4.40;;
2031;SDS011;27625;50.422;7.944;2023-01-28T01:36:45;8.50;;;4.77;;
2031;SDS011;27625;50.422;7.944;2023-01-28T01:39:12;7.90;;;5.27;;
2031;SDS011;27625;50.422;7.944;2023-01-28T01:41:40;5.97;;;4.63;;
2031;SDS011;27625;50.422;7.944;2023-01-28T01:47:09;6.23;;;4.67;;
2031;SDS011;27625;50.422;7.944;2023-01-28T01:49:36;5.90;;;5.20;;
2031;SDS011;27625;50.422;7.944;2023-01-28T01:52:05;9.83;;;4.87;;
2031;SDS011;27625;50.422;7.944;2023-01-28T01:54:35;5.67;;;4.50;;
2031;SDS011;27625;50.422;7.944;2023-01-28T01:57:06;9.43;;;4.43;;
2031;SDS011;27625;50.422;7.944;2023-01-28T01:59:35;7.00;;;5.27;;
2031;SDS011;27625;50.422;7.944;2023-01-28T02:02:04;5.77;;;4.80;;
2031;SDS011;27625;50.422;7.944;2023-01-28T02:04:34;6.03;;;4.50;;
2031;SDS011;27625;50.422;7.944;2023-01-28T02:07:05;6.00;;;4.70;;
2031;SDS011;27625;50.422;7.944;2023-01-28T02:09:41;5.50;;;4.27;;
2031;SDS011;27625;50.422;7.944;2023-01-28T02:12:12;6.63;;;4.77;;
2031;SDS011;27625;50.422;7.944;2023-01-28T02:14:40;6.73;;;4.73;;
2031;SDS011;27625;50.422;7.944;2023-01-28T02:17:10;7.07;;;4.70;;
2031;SDS011;27625;50.422;7.944;2023-01-28T02:19:37;5.20;;;4.70;;
2031;SDS011;27625;50.422;7.944;2023-01-28T02:28:14;5.70;;;4.53;;
2031;SDS011;27625;50.422;7.944;2023-01-28T02:30:47;8.27;;;5.30;;
2031;SDS011;27625;50.422;7.944;2023-01-28T02:33:22;5.77;;;5.07;;
2031;SDS011;27625;50.422;7.944;2023-01-28T02:35:54;4.47;;;4.00;;
2031;SDS011;27625;50.422;7.944;2023-01-28T02:38:24;5.20;;;4.37;;
2031;SDS011;27625;50.422;7.944;2023-01-28T02:40:52;4.33;;;3.90;;
2031;SDS011;27625;50.422;7.944;2023-01-28T02:43:35;5.27;;;4.27;;
2031;SDS011;27625;50.422;7.944;2023-01-28T02:46:07;5.37;;;4.30;;
2031;SDS011;27625;50.422;7.944;2023-01-28T02:48:55;5.90;;;4.43;;
2031;SDS011;27625;50.422;7.944;2023-01-28T02:51:24;5.47;;;4.37;;
2031;SDS011;27625;50.422;7.944;2023-01-28T02:54:00;4.93;;;4.40;;
2031;SDS011;27625;50.422;7.944;2023-01-28T02:56:32;3.83;;;3.43;;
2031;SDS011;27625;50.422;7.944;2023-01-28T02:59:09;4.33;;;3.90;;
2031;SDS011;27625;50.422;7.944;2023-01-28T03:01:55;6.30;;;5.00;;
2031;SDS011;27625;50.422;7.944;2023-01-28T03:04:26;6.10;;;4.80;;
2031;SDS011;27625;50.422;7.944;2023-01-28T03:06:59;4.60;;;3.90;;
2031;SDS011;27625;50.422;7.944;2023-01-28T03:09:31;5.50;;;4.30;;
2031;SDS011;27625;50.422;7.944;2023-01-28T03:11:59;6.17;;;4.77;;
2031;SDS011;27625;50.422;7.944;2023-01-28T03:14:48;6.07;;;4.77;;
2031;SDS011;27625;50.422;7.944;2023-01-28T03:17:35;6.07;;;4.53;;
2031;SDS011;27625;50.422;7.944;2023-01-28T03:20:24;5.83;;;4.40;;
2031;SDS011;27625;50.422;7.944;2023-01-28T03:23:12;5.10;;;4.57;;
2031;SDS011;27625;50.422;7.944;2023-01-28T03:26:06;5.70;;;4.80;;
2031;SDS011;27625;50.422;7.944;2023-01-28T03:28:56;6.83;;;4.43;;
2031;SDS011;27625;50.422;7.944;2023-01-28T03:31:48;5.70;;;4.30;;
2031;SDS011;27625;50.422;7.944;2023-01-28T03:34:33;4.23;;;3.83;;
2031;SDS011;27625;50.422;7.944;2023-01-28T03:37:21;4.93;;;4.10;;
2031;SDS011;27625;50.422;7.944;2023-01-28T03:40:03;5.70;;;4.47;;
2031;SDS011;27625;50.422;7.944;2023-01-28T03:42:30;5.63;;;4.50;;
2031;SDS011;27625;50.422;7.944;2023-01-28T03:45:09;5.10;;;4.47;;
2031;SDS011;27625;50.422;7.944;2023-01-28T03:47:39;4.83;;;4.27;;
2031;SDS011;27625;50.422;7.944;2023-01-28T03:50:09;6.73;;;4.90;;
2031;SDS011;27625;50.422;7.944;2023-01-28T03:52:49;9.07;;;4.83;;
2031;SDS011;27625;50.422;7.944;2023-01-28T03:55:29;5.70;;;5.07;;
2031;SDS011;27625;50.422;7.944;2023-01-28T03:57:57;6.40;;;4.97;;
2031;SDS011;27625;50.422;7.944;2023-01-28T04:00:24;6.90;;;4.70;;
2031;SDS011;27625;50.422;7.944;2023-01-28T04:02:53;7.37;;;5.43;;
2031;SDS011;27625;50.422;7.944;2023-01-28T04:05:20;6.70;;;4.97;;
2031;SDS011;27625;50.422;7.944;2023-01-28T04:07:50;5.73;;;5.10;;
2031;SDS011;27625;50.422;7.944;2023-01-28T04:10:59;6.40;;;5.80;;
2031;SDS011;27625;50.422;7.944;2023-01-28T04:13:39;5.70;;;4.57;;
2031;SDS011;27625;50.422;7.944;2023-01-28T04:16:10;5.90;;;4.60;;
2031;SDS011;27625;50.422;7.944;2023-01-28T04:18:43;7.20;;;4.97;;
2031;SDS011;27625;50.422;7.944;2023-01-28T04:21:10;7.87;;;5.00;;
2031;SDS011;27625;50.422;7.944;2023-01-28T04:23:38;6.70;;;4.90;;
2031;SDS011;27625;50.422;7.944;2023-01-28T04:26:06;7.60;;;5.57;;
2031;SDS011;27625;50.422;7.944;2023-01-28T04:28:34;7.63;;;4.77;;
2031;SDS011;27625;50.422;7.944;2023-01-28T04:31:01;6.90;;;5.03;;
2031;SDS011;27625;50.422;7.944;2023-01-28T04:33:52;5.50;;;4.93;;
2031;SDS011;27625;50.422;7.944;2023-01-28T04:36:24;6.70;;;4.50;;
2031;SDS011;27625;50.422;7.944;2023-01-28T04:39:17;5.07;;;4.10;;
2031;SDS011;27625;50.422;7.944;2023-01-28T04:41:58;5.07;;;4.40;;
2031;SDS011;27625;50.422;7.944;2023-01-28T04:44:47;6.10;;;4.47;;
2031;SDS011;27625;50.422;7.944;2023-01-28T04:47:24;4.80;;;4.00;;
2031;SDS011;27625;50.422;7.944;2023-01-28T04:50:21;5.67;;;4.47;;
2031;SDS011;27625;50.422;7.944;2023-01-28T04:53:07;5.13;;;4.30;;
2031;SDS011;27625;50.422;7.944;2023-01-28T04:55:45;4.80;;;3.73;;
2031;SDS011;27625;50.422;7.944;2023-01-28T04:58:12;4.80;;;4.30;;
2031;SDS011;27625;50.422;7.944;2023-01-28T05:00:41;5.00;;;4.50;;
2031;SDS011;27625;50.422;7.944;2023-01-28T05:03:12;6.37;;;3.90;;
2031;SDS011;27625;50.422;7.944;2023-01-28T05:05:40;5.97;;;3.70;;
2031;SDS011;27625;50.422;7.944;2023-01-28T05:08:21;9.53;;;4.00;;
2031;SDS011;27625;50.422;7.944;2023-01-28T05:10:48;4.67;;;3.77;;
2031;SDS011;27625;50.422;7.944;2023-01-28T05:13:16;5.03;;;3.83;;
2031;SDS011;27625;50.422;7.944;2023-01-28T05:15:49;6.07;;;4.40;;
2031;SDS011;27625;50.422;7.944;2023-01-28T05:18:17;4.90;;;4.40;;
2031;SDS011;27625;50.422;7.944;2023-01-28T05:20:52;5.17;;;4.40;;
2031;SDS011;27625;50.422;7.944;2023-01-28T05:23:19;5.17;;;4.40;;
2031;SDS011;27625;50.422;7.944;2023-01-28T05:25:49;5.90;;;4.20;;
2031;SDS011;27625;50.422;7.944;2023-01-28T05:28:16;5.07;;;4.10;;
2031;SDS011;27625;50.422;7.944;2023-01-28T05:30:43;4.30;;;3.90;;
2031;SDS011;27625;50.422;7.944;2023-01-28T05:33:10;5.67;;;4.30;;
2031;SDS011;27625;50.422;7.944;2023-01-28T05:35:36;6.43;;;4.40;;
2031;SDS011;27625;50.422;7.944;2023-01-28T05:38:05;5.03;;;4.30;;
2031;SDS011;27625;50.422;7.944;2023-01-28T05:40:31;7.10;;;4.90;;
2031;SDS011;27625;50.422;7.944;2023-01-28T05:42:59;5.07;;;4.50;;
2031;SDS011;27625;50.422;7.944;2023-01-28T05:45:36;10.33;;;4.80;;
2031;SDS011;27625;50.422;7.944;2023-01-28T05:48:19;5.53;;;4.50;;
2031;SDS011;27625;50.422;7.944;2023-01-28T05:51:14;6.10;;;4.60;;
2031;SDS011;27625;50.422;7.944;2023-01-28T05:53:47;5.47;;;4.40;;
2031;SDS011;27625;50.422;7.944;2023-01-28T05:56:15;4.83;;;4.00;;
2031;SDS011;27625;50.422;7.944;2023-01-28T05:58:43;5.43;;;4.53;;
2031;SDS011;27625;50.422;7.944;2023-01-28T06:01:10;5.80;;;4.50;;
2031;SDS011;27625;50.422;7.944;2023-01-28T06:03:41;7.10;;;5.23;;
2031;SDS011;27625;50.422;7.944;2023-01-28T06:06:08;7.50;;;5.33;;
2031;SDS011;27625;50.422;7.944;2023-01-28T06:08:36;6.57;;;4.40;;
2031;SDS011;27625;50.422;7.944;2023-01-28T06:11:05;7.73;;;4.20;;
2031;SDS011;27625;50.422;7.944;2023-01-28T06:13:33;5.90;;;4.33;;
2031;SDS011;27625;50.422;7.944;2023-01-28T06:16:21;5.40;;;3.93;;
2031;SDS011;27625;50.422;7.944;2023-01-28T06:19:11;6.83;;;4.10;;
2031;SDS011;27625;50.422;7.944;2023-01-28T06:21:37;4.77;;;3.27;;
2031;SDS011;27625;50.422;7.944;2023-01-28T06:24:06;4.57;;;3.03;;
2031;SDS011;27625;50.422;7.944;2023-01-28T06:26:34;3.40;;;2.83;;
2031;SDS011;27625;50.422;7.944;2023-01-28T06:29:01;3.93;;;3.20;;
2031;SDS011;27625;50.422;7.944;2023-01-28T06:31:29;3.40;;;2.80;;
2031;SDS011;27625;50.422;7.944;2023-01-28T06:33:57;2.93;;;2.50;;
2031;SDS011;27625;50.422;7.944;2023-01-28T06:36:23;4.00;;;2.00;;
2031;SDS011;27625;50.422;7.944;2023-01-28T06:38:51;2.50;;;2.03;;
2031;SDS011;27625;50.422;7.944;2023-01-28T06:41:19;2.63;;;1.93;;
2031;SDS011;27625;50.422;7.944;2023-01-28T06:43:48;2.73;;;2.30;;
2031;SDS011;27625;50.422;7.944;2023-01-28T06:46:14;2.57;;;2.00;;
2031;SDS011;27625;50.422;7.944;2023-01-28T06:48:48;2.77;;;2.50;;
2031;SDS011;27625;50.422;7.944;2023-01-28T06:51:14;2.53;;;2.07;;
2031;SDS011;27625;50.422;7.944;2023-01-28T06:53:43;2.40;;;2.03;;
2031;SDS011;27625;50.422;7.944;2023-01-28T06:56:10;3.07;;;2.30;;
2031;SDS011;27625;50.422;7.944;2023-01-28T06:58:37;2.77;;;2.00;;
2031;SDS011;27625;50.422;7.944;2023-01-28T07:01:06;3.40;;;2.40;;
2031;SDS011;27625;50.422;7.944;2023-01-28T07:03:35;3.60;;;2.40;;
2031;SDS011;27625;50.422;7.944;2023-01-28T07:06:02;3.10;;;2.60;;
2031;SDS011;27625;50.422;7.944;2023-01-28T07:08:31;3.60;;;2.40;;
2031;SDS011;27625;50.422;7.944;2023-01-28T07:10:58;2.73;;;2.27;;
2031;SDS011;27625;50.422;7.944;2023-01-28T07:13:24;4.20;;;2.40;;
2031;SDS011;27625;50.422;7.944;2023-01-28T07:15:51;2.67;;;2.20;;
2031;SDS011;27625;50.422;7.944;2023-01-28T07:18:19;3.90;;;2.30;;
2031;SDS011;27625;50.422;7.944;2023-01-28T07:20:46;2.40;;;2.07;;
2031;SDS011;27625;50.422;7.944;2023-01-28T07:23:14;2.30;;;2.10;;
2031;SDS011;27625;50.422;7.944;2023-01-28T07:25:41;4.10;;;2.60;;
2031;SDS011;27625;50.422;7.944;2023-01-28T07:28:10;2.30;;;1.87;;
2031;SDS011;27625;50.422;7.944;2023-01-28T07:30:37;2.43;;;2.07;;
2031;SDS011;27625;50.422;7.944;2023-01-28T07:33:05;2.73;;;2.10;;
2031;SDS011;27625;50.422;7.944;2023-01-28T07:35:33;2.97;;;2.30;;
2031;SDS011;27625;50.422;7.944;2023-01-28T07:38:01;2.63;;;2.23;;
2031;SDS011;27625;50.422;7.944;2023-01-28T07:40:28;2.97;;;2.10;;
2031;SDS011;27625;50.422;7.944;2023-01-28T07:42:57;2.50;;;2.30;;
2031;SDS011;27625;50.422;7.944;2023-01-28T07:45:26;2.50;;;2.17;;
2031;SDS011;27625;50.422;7.944;2023-01-28T07:47:59;2.90;;;2.50;;
2031;SDS011;27625;50.422;7.944;2023-01-28T07:50:29;2.90;;;2.60;;
2031;SDS011;27625;50.422;7.944;2023-01-28T07:53:00;3.37;;;2.80;;
2031;SDS011;27625;50.422;7.944;2023-01-28T07:55:28;2.70;;;2.03;;
2031;SDS011;27625;50.422;7.944;2023-01-28T07:57:55;2.70;;;2.40;;
2031;SDS011;27625;50.422;7.944;2023-01-28T08:00:24;2.83;;;2.20;;
2031;SDS011;27625;50.422;7.944;2023-01-28T08:02:57;2.93;;;2.57;;
2031;SDS011;27625;50.422;7.944;2023-01-28T08:05:27;4.60;;;2.80;;
2031;SDS011;27625;50.422;7.944;2023-01-28T08:08:00;3.60;;;2.70;;
2031;SDS011;27625;50.422;7.944;2023-01-28T08:10:28;3.67;;;2.87;;
2031;SDS011;27625;50.422;7.944;2023-01-28T08:12:55;3.70;;;3.00;;
2031;SDS011;27625;50.422;7.944;2023-01-28T08:15:23;3.17;;;2.60;;
2031;SDS011;27625;50.422;7.944;2023-01-28T08:17:52;2.70;;;2.47;;
2031;SDS011;27625;50.422;7.944;2023-01-28T08:20:21;3.10;;;2.80;;
2031;SDS011;27625;50.422;7.944;2023-01-28T08:22:48;3.03;;;2.40;;
2031;SDS011;27625;50.422;7.944;2023-01-28T08:25:17;5.67;;;2.60;;
2031;SDS011;27625;50.422;7.944;2023-01-28T08:27:44;2.43;;;2.13;;
2031;SDS011;27625;50.422;7.944;2023-01-28T08:30:13;3.00;;;2.10;;
2031;SDS011;27625;50.422;7.944;2023-01-28T08:32:42;3.00;;;2.47;;
2031;SDS011;27625;50.422;7.944;2023-01-28T08:35:09;3.40;;;2.40;;
2031;SDS011;27625;50.422;7.944;2023-01-28T08:37:41;4.40;;;2.00;;
2031;SDS011;27625;50.422;7.944;2023-01-28T08:40:09;3.20;;;2.20;;
2031;SDS011;27625;50.422;7.944;2023-01-28T08:42:39;2.83;;;2.40;;
2031;SDS011;27625;50.422;7.944;2023-01-28T08:45:06;3.00;;;2.50;;
2031;SDS011;27625;50.422;7.944;2023-01-28T08:47:34;3.23;;;2.50;;
2031;SDS011;27625;50.422;7.944;2023-01-28T08:50:02;3.50;;;2.23;;
2031;SDS011;27625;50.422;7.944;2023-01-28T08:52:30;3.70;;;2.70;;
2031;SDS011;27625;50.422;7.944;2023-01-28T08:54:57;3.70;;;2.73;;
2031;SDS011;27625;50.422;7.944;2023-01-28T08:57:25;3.07;;;2.70;;
2031;SDS011;27625;50.422;7.944;2023-01-28T09:00:03;4.73;;;2.60;;
2031;SDS011;27625;50.422;7.944;2023-01-28T09:02:34;2.60;;;2.30;;
2031;SDS011;27625;50.422;7.944;2023-01-28T09:05:00;3.17;;;2.33;;
2031;SDS011;27625;50.422;7.944;2023-01-28T09:07:27;2.70;;;2.33;;
2031;SDS011;27625;50.422;7.944;2023-01-28T09:09:54;2.67;;;2.10;;
2031;SDS011;27625;50.422;7.944;2023-01-28T09:12:21;2.37;;;2.10;;
2031;SDS011;27625;50.422;7.944;2023-01-28T09:14:49;2.50;;;2.20;;
2031;SDS011;27625;50.422;7.944;2023-01-28T09:17:18;2.60;;;2.40;;
2031;SDS011;27625;50.422;7.944;2023-01-28T09:19:49;2.27;;;1.90;;
2031;SDS011;27625;50.422;7.944;2023-01-28T09:22:17;3.30;;;2.83;;
2031;SDS011;27625;50.422;7.944;2023-01-28T09:24:44;5.03;;;4.07;;
2031;SDS011;27625;50.422;7.944;2023-01-28T09:27:11;4.20;;;3.40;;
2031;SDS011;27625;50.422;7.944;2023-01-28T09:29:38;4.60;;;3.73;;
2031;SDS011;27625;50.422;7.944;2023-01-28T09:32:07;4.43;;;3.13;;
2031;SDS011;27625;50.422;7.944;2023-01-28T09:34:35;4.30;;;3.00;;
2031;SDS011;27625;50.422;7.944;2023-01-28T09:37:02;3.60;;;3.30;;
2031;SDS011;27625;50.422;7.944;2023-01-28T09:39:28;2.90;;;2.50;;
2031;SDS011;27625;50.422;7.944;2023-01-28T09:42:03;2.83;;;2.37;;
2031;SDS011;27625;50.422;7.944;2023-01-28T09:44:41;2.70;;;2.40;;
2031;SDS011;27625;50.422;7.944;2023-01-28T09:47:18;4.23;;;2.43;;
2031;SDS011;27625;50.422;7.944;2023-01-28T09:49:50;2.80;;;2.50;;
2031;SDS011;27625;50.422;7.944;2023-01-28T09:52:20;3.20;;;2.80;;
2031;SDS011;27625;50.422;7.944;2023-01-28T09:54:48;2.80;;;2.40;;
2031;SDS011;27625;50.422;7.944;2023-01-28T09:57:18;3.83;;;2.50;;
2031;SDS011;27625;50.422;7.944;2023-01-28T09:59:47;2.77;;;2.50;;
2031;SDS011;27625;50.422;7.944;2023-01-28T10:02:19;2.90;;;2.37;;
2031;SDS011;27625;50.422;7.944;2023-01-28T10:04:56;2.70;;;2.40;;
2031;SDS011;27625;50.422;7.944;2023-01-28T10:07:33;3.43;;;3.13;;
2031;SDS011;27625;50.422;7.944;2023-01-28T10:10:05;3.03;;;2.70;;
2031;SDS011;27625;50.422;7.944;2023-01-28T10:12:42;3.63;;;2.77;;
2031;SDS011;27625;50.422;7.944;2023-01-28T10:15:27;3.30;;;2.40;;
2031;SDS011;27625;50.422;7.944;2023-01-28T10:18:02;3.00;;;2.50;;
2031;SDS011;27625;50.422;7.944;2023-01-28T10:20:37;2.47;;;2.20;;
2031;SDS011;27625;50.422;7.944;2023-01-28T10:23:07;2.90;;;2.60;;
2031;SDS011;27625;50.422;7.944;2023-01-28T10:25:39;3.80;;;2.90;;
2031;SDS011;27625;50.422;7.944;2023-01-28T10:28:09;3.37;;;2.70;;
2031;SDS011;27625;50.422;7.944;2023-01-28T10:30:45;2.93;;;2.50;;
2031;SDS011;27625;50.422;7.944;2023-01-28T10:33:15;3.13;;;2.83;;
2031;SDS011;27625;50.422;7.944;2023-01-28T10:35:46;3.27;;;2.57;;
2031;SDS011;27625;50.422;7.944;2023-01-28T10:38:14;3.10;;;2.50;;
2031;SDS011;27625;50.422;7.944;2023-01-28T10:40:42;3.43;;;2.77;;
2031;SDS011;27625;50.422;7.944;2023-01-28T10:43:13;3.87;;;2.50;;
2031;SDS011;27625;50.422;7.944;2023-01-28T10:45:41;3.00;;;2.70;;
2031;SDS011;27625;50.422;7.944;2023-01-28T10:48:14;2.63;;;2.33;;
2031;SDS011;27625;50.422;7.944;2023-01-28T10:50:51;4.17;;;3.30;;
2031;SDS011;27625;50.422;7.944;2023-01-28T10:53:31;8.33;;;5.80;;
2031;SDS011;27625;50.422;7.944;2023-01-28T10:55:59;3.27;;;2.90;;
2031;SDS011;27625;50.422;7.944;2023-01-28T10:58:30;3.40;;;2.90;;
2031;SDS011;27625;50.422;7.944;2023-01-28T11:01:00;3.47;;;2.60;;
2031;SDS011;27625;50.422;7.944;2023-01-28T11:03:30;3.27;;;2.90;;
2031;SDS011;27625;50.422;7.944;2023-01-28T11:06:02;3.97;;;2.80;;
2031;SDS011;27625;50.422;7.944;2023-01-28T11:08:29;3.13;;;2.50;;
2031;SDS011;27625;50.422;7.944;2023-01-28T11:10:57;3.37;;;2.50;;
2031;SDS011;27625;50.422;7.944;2023-01-28T11:13:25;3.27;;;2.30;;
2031;SDS011;27625;50.422;7.944;2023-01-28T11:15:53;2.73;;;2.40;;
2031;SDS011;27625;50.422;7.944;2023-01-28T11:18:23;3.27;;;2.80;;
2031;SDS011;27625;50.422;7.944;2023-01-28T11:20:54;3.20;;;2.87;;
2031;SDS011;27625;50.422;7.944;2023-01-28T11:23:25;2.93;;;2.50;;
2031;SDS011;27625;50.422;7.944;2023-01-28T11:26:03;4.70;;;2.70;;
2031;SDS011;27625;50.422;7.944;2023-01-28T11:28:32;3.70;;;3.20;;
2031;SDS011;27625;50.422;7.944;2023-01-28T11:31:00;4.63;;;4.13;;
2031;SDS011;27625;50.422;7.944;2023-01-28T11:33:30;7.87;;;6.20;;
2031;SDS011;27625;50.422;7.944;2023-01-28T11:36:04;3.90;;;3.27;;
2031;SDS011;27625;50.422;7.944;2023-01-28T11:38:35;3.70;;;3.03;;
2031;SDS011;27625;50.422;7.944;2023-01-28T11:41:12;3.80;;;2.93;;
2031;SDS011;27625;50.422;7.944;2023-01-28T11:43:40;4.07;;;3.23;;
2031;SDS011;27625;50.422;7.944;2023-01-28T11:46:11;3.40;;;2.93;;
2031;SDS011;27625;50.422;7.944;2023-01-28T11:48:48;3.13;;;2.60;;
2031;SDS011;27625;50.422;7.944;2023-01-28T11:51:21;3.33;;;2.77;;
2031;SDS011;27625;50.422;7.944;2023-01-28T11:53:58;3.00;;;2.70;;
2031;SDS011;27625;50.422;7.944;2023-01-28T11:56:37;4.00;;;3.23;;
2031;SDS011;27625;50.422;7.944;2023-01-28T11:59:17;3.00;;;2.70;;
2031;SDS011;27625;50.422;7.944;2023-01-28T12:01:51;5.50;;;2.83;;
2031;SDS011;27625;50.422;7.944;2023-01-28T12:04:23;3.70;;;2.90;;
2031;SDS011;27625;50.422;7.944;2023-01-28T12:07:07;3.03;;;2.70;;
2031;SDS011;27625;50.422;7.944;2023-01-28T12:09:43;4.00;;;2.97;;
2031;SDS011;27625;50.422;7.944;2023-01-28T12:12:18;4.93;;;2.87;;
2031;SDS011;27625;50.422;7.944;2023-01-28T12:17:48;4.37;;;3.00;;
2031;SDS011;27625;50.422;7.944;2023-01-28T12:20:23;3.30;;;2.90;;
2031;SDS011;27625;50.422;7.944;2023-01-28T12:25:57;3.67;;;3.00;;
2031;SDS011;27625;50.422;7.944;2023-01-28T12:28:34;3.57;;;3.27;;
2031;SDS011;27625;50.422;7.944;2023-01-28T12:31:14;4.53;;;2.93;;
2031;SDS011;27625;50.422;7.944;2023-01-28T12:33:56;3.33;;;2.90;;
2031;SDS011;27625;50.422;7.944;2023-01-28T12:36:33;3.93;;;3.23;;
2031;SDS011;27625;50.422;7.944;2023-01-28T12:39:11;3.40;;;2.63;;
2031;SDS011;27625;50.422;7.944;2023-01-28T12:41:48;3.30;;;2.80;;
2031;SDS011;27625;50.422;7.944;2023-01-28T12:44:20;3.10;;;2.70;;
2031;SDS011;27625;50.422;7.944;2023-01-28T12:46:50;3.30;;;3.00;;
2031;SDS011;27625;50.422;7.944;2023-01-28T12:49:20;4.33;;;3.53;;
2031;SDS011;27625;50.422;7.944;2023-01-28T12:51:52;3.20;;;2.90;;
2031;SDS011;27625;50.422;7.944;2023-01-28T12:54:25;3.40;;;3.03;;
2031;SDS011;27625;50.422;7.944;2023-01-28T12:56:56;4.20;;;2.80;;
2031;SDS011;27625;50.422;7.944;2023-01-28T12:59:26;3.37;;;2.83;;
2031;SDS011;27625;50.422;7.944;2023-01-28T13:01:56;3.37;;;3.00;;
2031;SDS011;27625;50.422;7.944;2023-01-28T13:04:30;3.90;;;3.50;;
2031;SDS011;27625;50.422;7.944;2023-01-28T13:07:01;4.37;;;3.50;;
2031;SDS011;27625;50.422;7.944;2023-01-28T13:09:32;3.40;;;3.10;;
2031;SDS011;27625;50.422;7.944;2023-01-28T13:12:03;4.50;;;3.30;;
2031;SDS011;27625;50.422;7.944;2023-01-28T13:14:32;4.20;;;3.80;;
2031;SDS011;27625;50.422;7.944;2023-01-28T13:17:10;3.83;;;3.10;;
2031;SDS011;27625;50.422;7.944;2023-01-28T13:19:39;4.60;;;3.03;;
2031;SDS011;27625;50.422;7.944;2023-01-28T13:22:11;4.10;;;3.30;;
2031;SDS011;27625;50.422;7.944;2023-01-28T13:24:48;4.10;;;3.47;;
2031;SDS011;27625;50.422;7.944;2023-01-28T13:27:21;4.20;;;3.50;;
2031;SDS011;27625;50.422;7.944;2023-01-28T13:29:58;5.87;;;3.63;;
2031;SDS011;27625;50.422;7.944;2023-01-28T13:32:28;5.20;;;4.27;;
2031;SDS011;27625;50.422;7.944;2023-01-28T13:34:57;5.87;;;4.60;;
2031;SDS011;27625;50.422;7.944;2023-01-28T13:37:28;7.33;;;4.40;;
2031;SDS011;27625;50.422;7.944;2023-01-28T13:40:00;6.27;;;4.40;;
2031;SDS011;27625;50.422;7.944;2023-01-28T13:42:31;10.20;;;6.43;;
2031;SDS011;27625;50.422;7.944;2023-01-28T13:47:49;5.90;;;5.30;;
2031;SDS011;27625;50.422;7.944;2023-01-28T13:50:19;6.50;;;5.40;;
2031;SDS011;27625;50.422;7.944;2023-01-28T13:52:49;7.37;;;4.40;;
2031;SDS011;27625;50.422;7.944;2023-01-28T13:55:22;5.80;;;3.53;;
2031;SDS011;27625;50.422;7.944;2023-01-28T14:01:05;5.77;;;5.13;;
2031;SDS011;27625;50.422;7.944;2023-01-28T14:03:53;4.40;;;3.80;;
2031;SDS011;27625;50.422;7.944;2023-01-28T14:06:59;4.90;;;4.33;;
2031;SDS011;27625;50.422;7.944;2023-01-28T14:09:31;5.10;;;4.50;;
2031;SDS011;27625;50.422;7.944;2023-01-28T14:12:20;4.43;;;4.03;;
2031;SDS011;27625;50.422;7.944;2023-01-28T14:15:13;6.23;;;5.63;;
2031;SDS011;27625;50.422;7.944;2023-01-28T14:17:49;4.90;;;4.10;;
2031;SDS011;27625;50.422;7.944;2023-01-28T14:20:17;5.83;;;5.30;;
2031;SDS011;27625;50.422;7.944;2023-01-28T14:22:48;5.57;;;5.07;;
2031;SDS011;27625;50.422;7.944;2023-01-28T14:25:19;4.50;;;3.70;;
2031;SDS011;27625;50.422;7.944;2023-01-28T14:27:50;5.20;;;4.00;;
2031;SDS011;27625;50.422;7.944;2023-01-28T14:30:19;5.57;;;3.97;;
2031;SDS011;27625;50.422;7.944;2023-01-28T14:32:51;7.77;;;6.87;;
2031;SDS011;27625;50.422;7.944;2023-01-28T14:35:21;6.90;;;5.23;;
2031;SDS011;27625;50.422;7.944;2023-01-28T14:37:54;6.43;;;4.40;;
2031;SDS011;27625;50.422;7.944;2023-01-28T14:40:23;5.30;;;4.60;;
2031;SDS011;27625;50.422;7.944;2023-01-28T14:42:51;8.10;;;5.70;;
2031;SDS011;27625;50.422;7.944;2023-01-28T14:45:21;5.53;;;4.53;;
2031;SDS011;27625;50.422;7.944;2023-01-28T14:48:08;6.17;;;4.77;;
2031;SDS011;27625;50.422;7.944;2023-01-28T14:50:46;5.50;;;4.60;;
2031;SDS011;27625;50.422;7.944;2023-01-28T14:53:28;6.57;;;4.60;;
2031;SDS011;27625;50.422;7.944;2023-01-28T14:56:16;4.93;;;4.40;;
2031;SDS011;27625;50.422;7.944;2023-01-28T14:58:54;5.60;;;4.47;;
2031;SDS011;27625;50.422;7.944;2023-01-28T15:01:23;6.70;;;5.23;;
2031;SDS011;27625;50.422;7.944;2023-01-28T15:03:54;8.43;;;5.50;;
2031;SDS011;27625;50.422;7.944;2023-01-28T15:06:21;7.80;;;6.13;;
2031;SDS011;27625;50.422;7.944;2023-01-28T15:08:51;7.53;;;5.80;;
2031;SDS011;27625;50.422;7.944;2023-01-28T15:11:29;5.30;;;4.33;;
2031;SDS011;27625;50.422;7.944;2023-01-28T15:13:56;5.40;;;4.53;;
2031;SDS011;27625;50.422;7.944;2023-01-28T15:16:27;5.50;;;4.40;;
2031;SDS011;27625;50.422;7.944;2023-01-28T15:18:56;7.10;;;5.47;;
2031;SDS011;27625;50.422;7.944;2023-01-28T15:21:25;6.50;;;5.50;;
2031;SDS011;27625;50.422;7.944;2023-01-28T15:24:00;5.03;;;3.97;;
2031;SDS011;27625;50.422;7.944;2023-01-28T15:26:30;5.23;;;4.20;;
2031;SDS011;27625;50.422;7.944;2023-01-28T15:29:02;4.73;;;4.23;;
2031;SDS011;27625;50.422;7.944;2023-01-28T15:31:31;8.20;;;6.43;;
2031;SDS011;27625;50.422;7.944;2023-01-28T15:34:02;24.17;;;14.43;;
2031;SDS011;27625;50.422;7.944;2023-01-28T15:36:34;20.40;;;12.30;;
2031;SDS011;27625;50.422;7.944;2023-01-28T15:39:11;12.23;;;7.47;;
2031;SDS011;27625;50.422;7.944;2023-01-28T15:41:39;15.93;;;8.17;;
2031;SDS011;27625;50.422;7.944;2023-01-28T15:44:14;14.30;;;8.50;;
2031;SDS011;27625;50.422;7.944;2023-01-28T15:46:42;19.07;;;10.57;;
2031;SDS011;27625;50.422;7.944;2023-01-28T15:49:14;15.73;;;9.20;;
2031;SDS011;27625;50.422;7.944;2023-01-28T15:51:47;10.10;;;7.77;;